Time;durP1;ratioP1;P1;durP2;ratioP2;P2;SDS_P1;SDS_P2;PMS_P1;PMS_P2;Temp;Humidity;BMP_temperature;BMP_pressure;BME280_temperature;BME280_humidity;BME280_pressure;Samples;Min_cycle;Max_cycle;Signal;HPM_P1;HPM_P2
2023/04/08 00:00:10;;;;;;;14.85;11.70;;;4.70;99.90;;;;;;6153620;23;20014;-82
2023/04/08 00:02:35;;;;;;;16.58;12.98;;;4.70;99.90;;;;;;6102524;23;20017;-82
2023/04/08 00:05:01;;;;;;;14.25;11.27;;;4.60;99.90;;;;;;6126493;23;20033;-81
2023/04/08 00:07:26;;;;;;;14.52;12.50;;;4.60;99.90;;;;;;6127059;23;20036;-82
2023/04/08 00:09:52;;;;;;;14.27;11.82;;;4.50;99.90;;;;;;6126639;23;20017;-82
2023/04/08 00:12:18;;;;;;;16.70;13.15;;;4.60;99.90;;;;;;6153072;23;20159;-82
2023/04/08 00:14:43;;;;;;;18.08;12.85;;;4.60;99.90;;;;;;6153024;23;20009;-82
2023/04/08 00:17:09;;;;;;;16.23;12.98;;;4.60;99.90;;;;;;6102390;23;20053;-82
2023/04/08 00:19:35;;;;;;;16.73;13.23;;;4.50;99.90;;;;;;6126238;23;20388;-82
2023/04/08 00:22:00;;;;;;;18.15;14.32;;;4.50;99.90;;;;;;6127083;23;20022;-82
2023/04/08 00:24:26;;;;;;;17.83;13.45;;;4.50;99.90;;;;;;6127261;23;20017;-83
2023/04/08 00:26:52;;;;;;;16.83;14.30;;;4.50;99.90;;;;;;6153451;23;20009;-82
2023/04/08 00:29:17;;;;;;;18.45;14.80;;;4.40;99.90;;;;;;6153423;23;20025;-82
2023/04/08 00:31:43;;;;;;;20.00;13.80;;;4.40;99.90;;;;;;6127040;23;20045;-82
2023/04/08 00:34:08;;;;;;;18.75;15.23;;;4.40;99.90;;;;;;6126461;23;20041;-81
2023/04/08 00:36:35;;;;;;;21.80;16.30;;;4.40;99.90;;;;;;6154178;23;20014;-82
2023/04/08 00:39:01;;;;;;;19.05;15.57;;;4.40;99.90;;;;;;6153486;23;20128;-81
2023/04/08 00:41:26;;;;;;;18.10;16.13;;;4.30;99.90;;;;;;6153939;23;20124;-82
2023/04/08 00:43:54;;;;;;;21.00;16.40;;;4.60;99.90;;;;;;6127245;23;20065;-82
2023/04/08 00:46:20;;;;;;;20.30;16.67;;;4.30;99.90;;;;;;6126732;23;20018;-82
2023/04/08 00:48:46;;;;;;;22.60;16.58;;;4.30;99.90;;;;;;6126645;23;20068;-81
2023/04/08 00:51:12;;;;;;;22.10;16.55;;;4.30;99.90;;;;;;6126745;23;20021;-82
2023/04/08 00:53:38;;;;;;;20.67;16.92;;;4.30;99.90;;;;;;6153046;23;20088;-82
2023/04/08 00:56:03;;;;;;;21.85;17.40;;;4.20;99.90;;;;;;6153246;23;20071;-82
2023/04/08 00:58:29;;;;;;;20.23;18.05;;;4.20;99.90;;;;;;6127035;23;20052;-82
2023/04/08 01:01:43;;;;;;;21.88;17.50;;;4.20;99.90;;;;;;6153362;23;20449;-82
2023/04/08 01:04:38;;;;;;;21.98;17.85;;;4.10;99.90;;;;;;5982307;23;20076;-82
2023/04/08 01:07:31;;;;;;;21.30;17.98;;;4.10;99.90;;;;;;6006032;23;20012;-82
2023/04/08 01:10:01;;;;;;;21.45;18.15;;;4.10;99.90;;;;;;5981978;23;20020;-82
2023/04/08 01:12:30;;;;;;;22.85;18.88;;;4.00;99.90;;;;;;6005855;23;20012;-82
2023/04/08 01:15:02;;;;;;;25.85;18.00;;;4.00;99.90;;;;;;6005795;23;20071;-83
2023/04/08 01:17:29;;;;;;;22.55;19.65;;;4.00;99.90;;;;;;6005164;23;20111;-80
2023/04/08 01:19:58;;;;;;;22.42;19.15;;;4.00;99.90;;;;;;6005981;23;20056;-82
2023/04/08 01:22:38;;;;;;;22.35;19.30;;;3.90;99.90;;;;;;6006216;23;20012;-80
2023/04/08 01:25:07;;;;;;;22.98;19.48;;;3.90;99.90;;;;;;6005999;23;20071;-81
2023/04/08 01:27:34;;;;;;;24.27;19.48;;;3.80;99.90;;;;;;6005641;23;20086;-81
2023/04/08 01:30:03;;;;;;;22.38;19.27;;;3.80;99.90;;;;;;6006060;23;20400;-81
2023/04/08 01:32:30;;;;;;;23.00;18.45;;;3.80;99.90;;;;;;6005354;23;20016;-81
2023/04/08 01:34:57;;;;;;;21.92;19.50;;;3.70;99.90;;;;;;6005487;23;20095;-81
2023/04/08 01:37:26;;;;;;;25.80;20.23;;;3.70;99.90;;;;;;6047299;23;20029;-81
2023/04/08 01:39:54;;;;;;;25.40;20.73;;;3.70;99.90;;;;;;6126444;23;20341;-82
2023/04/08 01:42:21;;;;;;;25.25;20.58;;;3.60;99.90;;;;;;6126379;23;20018;-82
2023/04/08 01:44:48;;;;;;;25.67;20.08;;;3.60;99.90;;;;;;6152580;23;20453;-81
2023/04/08 01:47:14;;;;;;;24.92;20.75;;;3.60;99.90;;;;;;6152147;23;20396;-81
2023/04/08 01:49:40;;;;;;;25.83;21.70;;;3.50;99.90;;;;;;6126275;23;20289;-81
2023/04/08 01:52:09;;;;;;;24.95;20.50;;;3.50;99.90;;;;;;6126523;23;20014;-82
2023/04/08 01:54:35;;;;;;;28.20;22.65;;;3.50;99.90;;;;;;6152836;23;20327;-81
2023/04/08 01:57:05;;;;;;;28.67;22.73;;;3.50;99.90;;;;;;6126205;23;20101;-81
2023/04/08 01:59:33;;;;;;;29.08;23.05;;;3.50;99.90;;;;;;6152825;23;20013;-81
2023/04/08 02:02:01;;;;;;;27.90;23.88;;;3.50;99.90;;;;;;6152940;23;20006;-82
2023/04/08 02:04:26;;;;;;;28.38;23.20;;;3.50;99.90;;;;;;6152875;23;20014;-82
2023/04/08 02:06:52;;;;;;;28.75;23.50;;;3.50;99.90;;;;;;6126405;23;20445;-82
2023/04/08 02:09:17;;;;;;;27.02;23.23;;;3.50;99.90;;;;;;6126194;23;20045;-82
2023/04/08 02:11:43;;;;;;;25.25;21.75;;;3.40;99.90;;;;;;6152849;23;20014;-82
2023/04/08 02:14:09;;;;;;;30.85;24.38;;;3.40;99.90;;;;;;6126136;23;20085;-81
2023/04/08 02:16:41;;;;;;;30.30;24.77;;;3.40;99.90;;;;;;6153292;23;20084;-82
2023/04/08 02:19:13;;;;;;;30.10;24.85;;;3.40;99.90;;;;;;6127066;23;20028;-82
2023/04/08 02:21:54;;;;;;;29.65;25.23;;;3.40;99.90;;;;;;6155172;23;20428;-81
2023/04/08 02:24:21;;;;;;;33.53;25.35;;;3.50;99.90;;;;;;6154270;23;20448;-82
2023/04/08 02:26:52;;;;;;;33.20;25.25;;;3.30;99.90;;;;;;6127694;23;20385;-82
2023/04/08 02:29:18;;;;;;;33.42;26.67;;;3.30;99.90;;;;;;6154145;23;20045;-82
2023/04/08 02:31:45;;;;;;;34.13;27.35;;;3.30;99.90;;;;;;6127900;23;20017;-81
2023/04/08 02:34:12;;;;;;;32.67;25.80;;;3.30;99.90;;;;;;6103442;23;20072;-82
2023/04/08 02:36:39;;;;;;;32.33;26.20;;;3.30;99.90;;;;;;6128052;23;20017;-82
2023/04/08 02:39:05;;;;;;;29.90;24.90;;;3.30;99.90;;;;;;6154368;23;20017;-82
2023/04/08 02:41:31;;;;;;;34.58;27.67;;;3.30;99.90;;;;;;6128400;23;20380;-82
2023/04/08 02:43:57;;;;;;;34.67;27.15;;;3.20;99.90;;;;;;6153733;23;20017;-82
2023/04/08 02:46:23;;;;;;;35.17;26.75;;;3.20;99.90;;;;;;6127812;23;20385;-82
2023/04/08 02:48:49;;;;;;;32.83;27.92;;;3.20;99.90;;;;;;6127577;23;20436;-82
2023/04/08 02:51:14;;;;;;;34.58;26.25;;;3.10;99.90;;;;;;6154085;23;20009;-82
2023/04/08 02:53:40;;;;;;;32.17;26.80;;;3.10;99.90;;;;;;6122771;23;20029;-82
2023/04/08 02:56:08;;;;;;;31.73;26.65;;;3.00;99.90;;;;;;6124796;23;20068;-81
2023/04/08 02:58:34;;;;;;;32.05;26.00;;;3.00;99.90;;;;;;6122308;23;20013;-83
2023/04/08 03:00:59;;;;;;;31.77;26.95;;;3.00;99.90;;;;;;6123248;23;20068;-82
2023/04/08 03:03:29;;;;;;;31.52;27.40;;;3.00;99.90;;;;;;6123233;23;20403;-80
2023/04/08 03:05:55;;;;;;;35.17;28.27;;;2.90;99.90;;;;;;6125046;23;20025;-82
2023/04/08 03:08:21;;;;;;;33.42;27.13;;;2.90;99.90;;;;;;6125102;23;20024;-82
2023/04/08 03:10:48;;;;;;;36.53;28.17;;;2.90;99.90;;;;;;6124947;23;20017;-82
2023/04/08 03:13:14;;;;;;;33.03;28.08;;;2.90;99.90;;;;;;6122045;23;20006;-81
2023/04/08 03:15:40;;;;;;;37.22;29.77;;;2.80;99.90;;;;;;6122456;23;20021;-82
2023/04/08 03:18:06;;;;;;;39.90;29.50;;;2.80;99.90;;;;;;6097974;23;20010;-81
2023/04/08 03:20:31;;;;;;;36.40;28.20;;;2.80;99.90;;;;;;6124458;23;20009;-82
2023/04/08 03:22:57;;;;;;;37.03;30.10;;;2.80;99.90;;;;;;6122949;23;20022;-82
2023/04/08 03:25:23;;;;;;;35.25;27.02;;;2.80;99.90;;;;;;6124110;23;20350;-82
2023/04/08 03:27:48;;;;;;;36.30;29.27;;;2.70;99.90;;;;;;6123814;23;20009;-82
2023/04/08 03:30:14;;;;;;;31.60;26.30;;;2.70;99.90;;;;;;6122298;23;20453;-82
2023/04/08 03:32:39;;;;;;;37.47;28.95;;;2.60;99.90;;;;;;6124014;23;20045;-82
2023/04/08 03:35:05;;;;;;;41.45;31.20;;;2.60;99.90;;;;;;6122522;23;20010;-82
2023/04/08 03:37:31;;;;;;;41.65;31.90;;;2.60;99.90;;;;;;6124695;23;20068;-82
2023/04/08 03:39:57;;;;;;;43.70;31.85;;;2.70;99.90;;;;;;6123960;23;20311;-82
2023/04/08 03:42:23;;;;;;;41.20;32.42;;;2.60;99.90;;;;;;6121855;23;20304;-82
2023/04/08 03:44:48;;;;;;;42.22;31.50;;;2.60;99.90;;;;;;6122532;23;20021;-82
2023/04/08 03:47:14;;;;;;;40.50;29.30;;;2.60;99.90;;;;;;6098534;23;20020;-82
2023/04/08 03:49:40;;;;;;;39.75;30.02;;;2.60;99.90;;;;;;6122492;23;20456;-82
2023/04/08 03:52:06;;;;;;;43.20;32.70;;;2.60;99.90;;;;;;6098157;23;20013;-82
2023/04/08 03:54:31;;;;;;;42.88;33.00;;;2.80;99.90;;;;;;6098194;23;20018;-83
2023/04/08 03:56:57;;;;;;;46.72;34.55;;;2.50;99.90;;;;;;6097629;23;20452;-83
2023/04/08 03:59:23;;;;;;;46.60;33.30;;;2.50;99.90;;;;;;6124037;23;20084;-83
2023/04/08 04:01:50;;;;;;;35.72;29.10;;;2.50;99.90;;;;;;6123313;23;20064;-83
2023/04/08 04:04:15;;;;;;;42.42;32.80;;;2.50;99.90;;;;;;6122167;23;20080;-81
2023/04/08 04:06:41;;;;;;;43.92;32.30;;;2.40;99.90;;;;;;6122330;23;20397;-81
2023/04/08 04:09:06;;;;;;;42.00;31.98;;;2.40;99.90;;;;;;6122404;23;20017;-81
2023/04/08 04:11:34;;;;;;;37.75;30.80;;;2.40;99.90;;;;;;6124031;23;20176;-82
2023/04/08 04:14:00;;;;;;;40.33;30.67;;;3.20;99.90;;;;;;6097987;23;20060;-82
2023/04/08 04:16:25;;;;;;;52.38;36.03;;;2.40;99.90;;;;;;6124507;23;20080;-82
2023/04/08 04:18:52;;;;;;;40.65;31.92;;;2.40;99.90;;;;;;6122360;23;20014;-82
2023/04/08 04:21:18;;;;;;;40.33;31.63;;;2.40;99.90;;;;;;6122921;23;20018;-81
2023/04/08 04:23:44;;;;;;;41.08;32.90;;;2.30;99.90;;;;;;6122413;23;20080;-82
2023/04/08 04:26:10;;;;;;;47.42;35.20;;;2.40;99.90;;;;;;6121849;23;20395;-82
2023/04/08 04:28:37;;;;;;;41.53;32.05;;;2.30;99.90;;;;;;6124283;23;20010;-81
2023/04/08 04:31:02;;;;;;;52.28;36.17;;;2.30;99.90;;;;;;6122622;23;20022;-81
2023/04/08 04:33:28;;;;;;;40.97;32.38;;;2.30;99.90;;;;;;6122264;23;20006;-81
2023/04/08 04:35:54;;;;;;;52.22;35.53;;;2.30;99.90;;;;;;6122674;23;20112;-82
2023/04/08 04:38:20;;;;;;;43.38;31.83;;;2.40;99.90;;;;;;6122714;23;20010;-82
2023/04/08 04:40:46;;;;;;;40.55;32.92;;;2.30;99.90;;;;;;6097602;23;20018;-82
2023/04/08 04:43:11;;;;;;;46.78;34.80;;;2.30;99.90;;;;;;6122471;23;20018;-82
2023/04/08 04:45:37;;;;;;;49.22;35.88;;;2.40;99.90;;;;;;6122578;23;20049;-82
2023/04/08 04:48:03;;;;;;;49.75;36.03;;;2.40;99.90;;;;;;6122633;23;20192;-82
2023/04/08 04:50:28;;;;;;;44.97;35.33;;;2.40;99.90;;;;;;6123751;23;20338;-82
2023/04/08 04:52:54;;;;;;;44.08;33.53;;;2.40;99.90;;;;;;6102138;23;20072;-82
2023/04/08 04:55:21;;;;;;;48.00;35.53;;;2.40;99.90;;;;;;6101650;23;20033;-82
2023/04/08 04:57:47;;;;;;;54.15;38.45;;;2.40;99.90;;;;;;6127254;23;20017;-82
2023/04/08 05:00:13;;;;;;;56.92;38.45;;;2.40;99.90;;;;;;6101777;23;20014;-83
2023/04/08 05:02:39;;;;;;;51.72;36.78;;;2.40;99.90;;;;;;6100771;23;20018;-82
2023/04/08 05:05:05;;;;;;;46.50;34.53;;;2.50;99.90;;;;;;6125162;23;20092;-83
2023/04/08 05:07:34;;;;;;;52.00;36.05;;;2.50;99.90;;;;;;6102380;23;20032;-83
2023/04/08 05:10:00;;;;;;;59.33;39.22;;;2.60;99.90;;;;;;6124834;23;20039;-82
2023/04/08 05:12:26;;;;;;;51.60;38.65;;;2.70;99.90;;;;;;6101458;23;20476;-83
2023/04/08 05:14:51;;;;;;;53.85;38.30;;;2.70;99.90;;;;;;6102200;23;20097;-82
2023/04/08 05:17:17;;;;;;;54.38;38.08;;;2.70;99.90;;;;;;6126419;23;20041;-83
2023/04/08 05:19:42;;;;;;;59.80;38.47;;;2.80;99.90;;;;;;6153233;23;20016;-82
2023/04/08 05:22:08;;;;;;;56.60;38.47;;;3.10;99.90;;;;;;6102224;23;20009;-82
2023/04/08 05:24:35;;;;;;;49.90;37.50;;;3.00;99.90;;;;;;6152273;23;20084;-82
2023/04/08 05:27:00;;;;;;;66.35;40.30;;;3.10;99.90;;;;;;6102107;23;20093;-82
2023/04/08 05:29:27;;;;;;;47.78;36.50;;;3.20;99.90;;;;;;6153032;23;20045;-82
2023/04/08 05:31:53;;;;;;;46.20;34.10;;;3.50;99.90;;;;;;6126802;23;20353;-83
2023/04/08 05:34:21;;;;;;;53.20;35.90;;;3.20;99.90;;;;;;6127098;23;20045;-82
2023/04/08 05:36:50;;;;;;;54.60;37.17;;;3.40;99.90;;;;;;6126569;23;20452;-82
2023/04/08 05:39:17;;;;;;;49.40;36.88;;;3.50;99.90;;;;;;6126060;23;20128;-82
2023/04/08 05:41:43;;;;;;;53.03;37.25;;;3.60;99.90;;;;;;6153098;23;20013;-82
2023/04/08 05:44:09;;;;;;;47.22;35.90;;;3.70;99.90;;;;;;6152936;23;20018;-82
2023/04/08 05:46:34;;;;;;;48.65;36.38;;;3.90;99.90;;;;;;6126491;23;20021;-81
2023/04/08 05:49:00;;;;;;;45.83;34.80;;;4.00;99.90;;;;;;6126709;23;20465;-81
2023/04/08 05:51:26;;;;;;;48.45;36.22;;;4.20;99.90;;;;;;6126695;23;20025;-80
2023/04/08 05:53:51;;;;;;;44.38;33.60;;;4.40;99.90;;;;;;6151804;23;20082;-81
2023/04/08 05:56:17;;;;;;;45.17;33.83;;;4.60;99.90;;;;;;6128340;23;20120;-80
2023/04/08 05:58:42;;;;;;;40.67;32.50;;;4.80;99.90;;;;;;6128667;23;20009;-82
2023/04/08 06:01:08;;;;;;;44.03;33.58;;;5.00;99.90;;;;;;6128920;23;20005;-83
2023/04/08 06:03:34;;;;;;;39.42;32.40;;;5.10;99.90;;;;;;6129717;23;20010;-83
2023/04/08 06:06:00;;;;;;;38.75;31.58;;;5.30;99.90;;;;;;6104520;23;20022;-83
2023/04/08 06:08:25;;;;;;;37.17;30.13;;;5.40;99.90;;;;;;6128717;23;20009;-83
2023/04/08 06:10:51;;;;;;;38.97;30.20;;;5.50;99.90;;;;;;6104777;23;20420;-82
2023/04/08 06:13:19;;;;;;;36.90;30.95;;;5.70;99.90;;;;;;6128323;23;20365;-84
2023/04/08 06:15:44;;;;;;;39.38;29.83;;;6.00;99.90;;;;;;6105969;23;20023;-84
2023/04/08 06:18:10;;;;;;;34.75;30.67;;;6.30;99.90;;;;;;6105570;23;20088;-84
2023/04/08 06:20:36;;;;;;;33.67;29.30;;;6.50;99.90;;;;;;6128655;23;20384;-84
2023/04/08 06:23:01;;;;;;;33.47;29.08;;;6.50;99.90;;;;;;6105080;23;20036;-85
2023/04/08 06:25:27;;;;;;;35.83;29.00;;;6.40;99.90;;;;;;6107528;23;20020;-88
2023/04/08 06:27:52;;;;;;;35.25;29.30;;;6.40;99.90;;;;;;6112862;23;20017;-90
2023/04/08 06:30:18;;;;;;;35.63;28.92;;;6.40;99.90;;;;;;6134789;23;20471;-88
2023/04/08 06:32:46;;;;;;;38.17;30.40;;;6.30;99.90;;;;;;6135980;23;20042;-92
2023/04/08 06:35:12;;;;;;;37.17;28.48;;;6.30;99.90;;;;;;6161331;23;20337;-89
2023/04/08 06:37:37;;;;;;;32.83;28.67;;;6.40;99.90;;;;;;6135519;23;20013;-89
2023/04/08 06:40:06;;;;;;;33.60;28.88;;;6.50;99.90;;;;;;6135785;23;20088;-88
2023/04/08 06:42:32;;;;;;;32.65;28.55;;;6.60;99.90;;;;;;6134807;23;20013;-89
2023/04/08 06:44:58;;;;;;;30.83;27.55;;;6.50;99.90;;;;;;6112108;23;20018;-89
2023/04/08 06:47:24;;;;;;;32.90;28.17;;;6.50;99.90;;;;;;6111083;23;20086;-89
2023/04/08 06:49:50;;;;;;;29.08;25.98;;;6.70;99.90;;;;;;6161946;23;20009;-89
2023/04/08 06:52:16;;;;;;;29.50;26.27;;;7.00;99.90;;;;;;6135695;23;20092;-87
2023/04/08 06:54:41;;;;;;;28.38;25.30;;;7.30;99.90;;;;;;6130061;23;20018;-91
2023/04/08 06:57:07;;;;;;;27.88;24.92;;;7.50;99.90;;;;;;6130335;23;20080;-88
2023/04/08 06:59:33;;;;;;;25.98;23.17;;;7.60;99.90;;;;;;6129937;23;20010;-88
2023/04/08 07:01:59;;;;;;;28.50;23.73;;;7.60;99.90;;;;;;6105157;23;20013;-88
2023/04/08 07:04:24;;;;;;;27.58;22.80;;;7.90;99.90;;;;;;6130326;23;20014;-89
2023/04/08 07:06:50;;;;;;;27.02;23.67;;;7.70;99.90;;;;;;6131046;23;20018;-87
2023/04/08 07:09:16;;;;;;;25.42;22.80;;;7.50;99.90;;;;;;6129545;23;20026;-86
2023/04/08 07:11:41;;;;;;;28.48;22.98;;;7.50;99.90;;;;;;6130825;23;20006;-86
2023/04/08 07:14:07;;;;;;;26.98;22.50;;;7.80;99.90;;;;;;6129826;23;20069;-86
2023/04/08 07:16:32;;;;;;;25.90;22.85;;;7.60;99.90;;;;;;6102935;23;20010;-85
2023/04/08 07:18:58;;;;;;;25.85;22.13;;;7.60;99.90;;;;;;6101898;23;20014;-86
2023/04/08 07:21:24;;;;;;;24.42;21.85;;;7.60;99.90;;;;;;6129701;23;20493;-94
2023/04/08 07:23:50;;;;;;;24.40;21.77;;;7.60;99.90;;;;;;6106703;23;20014;-91
2023/04/08 07:26:15;;;;;;;25.00;22.00;;;7.60;99.90;;;;;;6130247;23;20025;-92
2023/04/08 07:28:41;;;;;;;24.17;21.67;;;7.60;99.90;;;;;;6105771;23;20013;-93
2023/04/08 07:31:15;;;;;;;25.55;22.85;;;7.70;99.90;;;;;;6130941;23;20017;-90
2023/04/08 07:33:42;;;;;;;26.63;22.58;;;7.90;99.90;;;;;;6128153;23;20014;-85
2023/04/08 07:36:09;;;;;;;24.80;22.15;;;7.80;99.90;;;;;;6130074;23;20013;-89
2023/04/08 07:38:35;;;;;;;24.92;21.45;;;7.80;99.90;;;;;;6130020;23;20010;-87
2023/04/08 07:41:01;;;;;;;24.25;21.73;;;7.80;99.90;;;;;;6102467;23;20491;-83
2023/04/08 07:43:26;;;;;;;24.55;21.33;;;7.70;99.90;;;;;;6101843;23;20088;-87
2023/04/08 07:45:52;;;;;;;26.45;20.27;;;7.80;99.90;;;;;;6129086;23;20077;-86
2023/04/08 07:48:18;;;;;;;23.20;20.70;;;7.70;99.90;;;;;;6129956;23;20045;-89
2023/04/08 07:50:44;;;;;;;22.80;19.80;;;7.80;99.90;;;;;;6130929;23;20045;-86
2023/04/08 07:53:10;;;;;;;22.27;19.88;;;7.70;99.90;;;;;;6129529;23;20034;-88
2023/04/08 07:55:38;;;;;;;22.70;20.30;;;7.70;99.90;;;;;;6131178;23;20097;-87
2023/04/08 07:58:03;;;;;;;22.08;19.77;;;8.40;99.90;;;;;;6131535;23;20010;-90
2023/04/08 08:00:30;;;;;;;22.58;20.20;;;7.60;99.90;;;;;;6133954;23;20397;-84
2023/04/08 08:02:55;;;;;;;21.85;19.63;;;7.70;99.90;;;;;;6134959;23;20102;-91
2023/04/08 08:05:21;;;;;;;23.83;20.95;;;8.00;99.90;;;;;;6133099;23;20069;-87
2023/04/08 08:07:47;;;;;;;21.52;19.23;;;8.20;99.90;;;;;;6107645;23;20582;-89
2023/04/08 08:10:12;;;;;;;22.92;20.23;;;8.40;99.90;;;;;;6104915;23;20024;-89
2023/04/08 08:12:38;;;;;;;24.88;21.50;;;8.30;99.90;;;;;;6104239;23;20013;-89
2023/04/08 08:15:04;;;;;;;24.00;21.05;;;8.50;99.90;;;;;;6126989;23;20062;-88
2023/04/08 08:17:32;;;;;;;24.67;21.88;;;8.60;99.90;;;;;;6124111;23;20093;-90
2023/04/08 08:19:58;;;;;;;25.38;22.33;;;9.00;99.90;;;;;;6122875;23;20018;-89
2023/04/08 08:22:24;;;;;;;22.40;20.15;;;8.80;99.90;;;;;;6097347;23;20068;-89
2023/04/08 08:24:58;;;;;;;22.67;20.38;;;9.00;99.90;;;;;;6097225;23;20010;-89
2023/04/08 08:27:24;;;;;;;22.45;20.25;;;9.00;99.90;;;;;;6125664;23;20010;-89
2023/04/08 08:29:51;;;;;;;22.00;19.70;;;9.00;99.90;;;;;;6124705;23;20010;-89
2023/04/08 08:32:16;;;;;;;20.88;18.67;;;8.90;99.90;;;;;;6125748;23;20418;-89
2023/04/08 08:34:42;;;;;;;22.38;20.08;;;8.80;99.90;;;;;;6124990;23;20077;-89
2023/04/08 08:37:07;;;;;;;21.65;19.45;;;8.90;99.90;;;;;;6100321;23;20042;-89
2023/04/08 08:39:33;;;;;;;21.85;19.55;;;9.00;99.90;;;;;;6124157;23;20117;-89
2023/04/08 08:41:59;;;;;;;19.52;17.48;;;9.00;99.90;;;;;;6100226;23;20055;-89
2023/04/08 08:44:25;;;;;;;20.45;18.35;;;9.20;99.90;;;;;;6125987;23;20085;-89
2023/04/08 08:46:52;;;;;;;23.20;19.05;;;9.20;99.90;;;;;;6125880;23;20014;-89
2023/04/08 08:49:17;;;;;;;20.52;18.33;;;9.40;99.90;;;;;;6125817;23;20022;-87
2023/04/08 08:51:45;;;;;;;22.30;19.85;;;9.40;99.90;;;;;;6127397;23;20369;-88
2023/04/08 08:54:11;;;;;;;22.40;20.08;;;9.30;99.90;;;;;;6099846;23;20014;-89
2023/04/08 08:56:37;;;;;;;22.08;19.73;;;9.10;99.90;;;;;;6125844;23;20503;-88
2023/04/08 08:59:03;;;;;;;22.92;20.55;;;9.00;99.90;;;;;;6099557;23;20377;-89
2023/04/08 09:01:33;;;;;;;23.88;21.40;;;9.00;99.90;;;;;;6123614;23;20037;-88
2023/04/08 09:04:07;;;;;;;21.05;18.85;;;8.80;99.90;;;;;;6099849;23;20021;-89
2023/04/08 09:06:32;;;;;;;20.50;18.33;;;8.70;99.90;;;;;;6124351;23;20057;-89
2023/04/08 09:08:58;;;;;;;21.08;18.73;;;8.60;99.90;;;;;;6124426;23;20014;-89
2023/04/08 09:11:23;;;;;;;21.38;18.92;;;8.50;99.90;;;;;;6099593;23;20025;-88
2023/04/08 09:13:49;;;;;;;21.10;18.90;;;8.50;99.90;;;;;;6124370;23;20014;-89
2023/04/08 09:16:17;;;;;;;21.35;18.70;;;8.50;99.90;;;;;;6123337;23;20005;-89
2023/04/08 09:18:45;;;;;;;20.83;18.63;;;8.50;99.90;;;;;;6125586;23;20006;-89
2023/04/08 09:21:12;;;;;;;26.33;19.63;;;8.50;99.90;;;;;;6123438;23;20017;-89
2023/04/08 09:23:40;;;;;;;22.08;19.77;;;8.50;99.90;;;;;;6123845;23;20018;-88
2023/04/08 09:26:11;;;;;;;22.63;19.77;;;8.60;99.90;;;;;;6125711;23;20337;-89
2023/04/08 09:28:37;;;;;;;22.00;19.60;;;8.60;99.90;;;;;;6099649;23;20014;-88
2023/04/08 09:31:18;;;;;;;21.67;19.40;;;8.40;99.90;;;;;;6126401;23;20010;-88
2023/04/08 09:33:44;;;;;;;22.00;19.60;;;8.50;99.90;;;;;;6128152;23;20085;-88
2023/04/08 09:36:10;;;;;;;21.10;18.90;;;8.60;99.90;;;;;;6101570;23;20014;-89
2023/04/08 09:38:36;;;;;;;20.95;18.73;;;8.60;99.90;;;;;;6125724;23;20094;-88
2023/04/08 09:41:06;;;;;;;21.58;19.38;;;8.60;99.90;;;;;;6130062;23;20014;-87
2023/04/08 09:43:37;;;;;;;21.92;18.63;;;8.80;99.90;;;;;;6127002;23;20013;-89
2023/04/08 09:46:04;;;;;;;23.17;19.15;;;8.80;99.90;;;;;;6125670;23;20341;-89
2023/04/08 09:48:40;;;;;;;19.27;17.08;;;9.00;99.90;;;;;;6126185;23;20014;-89
2023/04/08 09:51:06;;;;;;;19.92;17.83;;;8.80;99.90;;;;;;6125616;23;20084;-89
2023/04/08 09:53:46;;;;;;;18.63;16.63;;;9.00;99.90;;;;;;6130097;23;20014;-88
2023/04/08 09:56:13;;;;;;;20.60;17.85;;;9.00;99.90;;;;;;6130177;23;20024;-88
2023/04/08 09:59:02;;;;;;;19.20;16.98;;;8.60;99.90;;;;;;6130419;23;20020;-88
2023/04/08 10:01:36;;;;;;;19.88;17.75;;;8.50;99.90;;;;;;6130280;23;20025;-88
2023/04/08 10:04:07;;;;;;;18.52;16.52;;;8.50;99.90;;;;;;6156278;23;20447;-88
2023/04/08 10:06:34;;;;;;;19.00;17.00;;;8.50;99.90;;;;;;6130148;23;20013;-88
2023/04/08 10:09:01;;;;;;;20.35;17.83;;;8.60;99.90;;;;;;6156952;23;20014;-88
2023/04/08 10:11:28;;;;;;;18.58;16.55;;;8.70;99.90;;;;;;6130765;23;20400;-88
2023/04/08 10:13:54;;;;;;;17.20;15.40;;;8.70;99.90;;;;;;6156999;23;20080;-88
2023/04/08 10:16:26;;;;;;;16.10;14.40;;;8.70;99.90;;;;;;6157327;23;20025;-88
2023/04/08 10:18:54;;;;;;;15.40;13.80;;;8.80;99.90;;;;;;6129840;23;20029;-88
2023/04/08 10:21:46;;;;;;;16.33;13.90;;;9.00;99.90;;;;;;6130034;23;20522;-88
2023/04/08 10:24:12;;;;;;;15.93;14.15;;;8.90;99.90;;;;;;6156503;23;20135;-88
2023/04/08 10:26:41;;;;;;;16.48;13.48;;;8.90;99.90;;;;;;6156468;23;20021;-88
2023/04/08 10:29:25;;;;;;;14.40;12.85;;;8.90;99.90;;;;;;6156017;23;20017;-86
2023/04/08 10:31:51;;;;;;;16.50;13.73;;;9.00;99.90;;;;;;6131589;23;20318;-88
2023/04/08 10:34:25;;;;;;;14.95;13.35;;;9.00;99.90;;;;;;6106005;23;20064;-88
2023/04/08 10:36:54;;;;;;;14.57;13.05;;;9.00;99.90;;;;;;6129162;23;20025;-88
2023/04/08 10:39:20;;;;;;;15.15;13.32;;;9.10;99.90;;;;;;6129704;23;20085;-88
2023/04/08 10:41:47;;;;;;;15.73;13.77;;;9.10;99.90;;;;;;6128960;23;20013;-88
2023/04/08 10:44:25;;;;;;;14.85;12.60;;;9.10;99.90;;;;;;6130011;23;20096;-89
2023/04/08 10:46:52;;;;;;;16.48;13.68;;;9.30;99.90;;;;;;6104986;23;20333;-88
2023/04/08 10:49:18;;;;;;;17.08;14.15;;;9.30;99.90;;;;;;6104649;23;20022;-88
2023/04/08 10:51:44;;;;;;;17.08;13.95;;;9.40;99.90;;;;;;6155068;23;20040;-88
2023/04/08 10:54:19;;;;;;;15.63;12.88;;;9.50;99.90;;;;;;6124037;23;20322;-88
2023/04/08 10:56:46;;;;;;;16.25;13.70;;;9.70;99.90;;;;;;6124031;23;20024;-88
2023/04/08 10:59:15;;;;;;;16.30;14.18;;;9.70;99.90;;;;;;6124724;23;20013;-88
2023/04/08 11:01:43;;;;;;;18.08;13.85;;;9.80;99.90;;;;;;6124643;23;20056;-88
2023/04/08 11:04:22;;;;;;;18.70;14.52;;;9.90;99.90;;;;;;6099842;23;20010;-87
2023/04/08 11:06:48;;;;;;;18.45;15.00;;;9.80;99.90;;;;;;6124245;23;20029;-88
2023/04/08 11:09:15;;;;;;;18.17;14.20;;;9.80;99.90;;;;;;6100654;23;20033;-88
2023/04/08 11:11:42;;;;;;;18.35;14.23;;;9.90;99.90;;;;;;6124323;23;20345;-88
2023/04/08 11:14:08;;;;;;;16.75;14.43;;;9.90;99.90;;;;;;6100042;23;20010;-88
2023/04/08 11:16:35;;;;;;;16.98;14.88;;;10.00;99.90;;;;;;6100195;23;20069;-88
2023/04/08 11:19:04;;;;;;;18.33;15.70;;;10.10;99.90;;;;;;6100948;23;20006;-88
2023/04/08 11:21:31;;;;;;;19.98;15.68;;;10.10;99.90;;;;;;6128614;23;20096;-87
2023/04/08 11:23:58;;;;;;;19.75;16.48;;;10.20;99.90;;;;;;6125203;23;20014;-88
2023/04/08 11:26:25;;;;;;;21.45;17.67;;;10.30;99.90;;;;;;6125855;23;20076;-88
2023/04/08 11:28:51;;;;;;;24.15;18.48;;;10.30;99.90;;;;;;6124574;23;20329;-88
2023/04/08 11:31:21;;;;;;;22.83;19.10;;;10.40;99.90;;;;;;6124661;23;20014;-88
2023/04/08 11:33:48;;;;;;;22.33;18.40;;;10.50;99.90;;;;;;6099916;23;20021;-88
2023/04/08 11:36:14;;;;;;;22.85;18.95;;;10.90;99.90;;;;;;6124293;23;20052;-88
2023/04/08 11:38:42;;;;;;;26.85;19.67;;;10.50;99.90;;;;;;6124285;23;20014;-88
2023/04/08 11:41:10;;;;;;;25.13;20.88;;;10.60;99.90;;;;;;6098852;23;20018;-88
2023/04/08 11:43:36;;;;;;;25.55;20.45;;;10.60;99.90;;;;;;6099715;23;20117;-88
2023/04/08 11:46:11;;;;;;;25.85;21.15;;;10.60;99.90;;;;;;6099431;23;20013;-89
2023/04/08 11:48:38;;;;;;;26.80;22.52;;;10.50;99.90;;;;;;6123718;23;20101;-88
2023/04/08 11:51:09;;;;;;;32.40;25.88;;;10.50;99.90;;;;;;6099457;23;20314;-88
2023/04/08 11:53:38;;;;;;;32.45;25.75;;;10.40;99.90;;;;;;6138397;23;20018;-88
2023/04/08 11:56:21;;;;;;;32.47;25.70;;;10.50;99.90;;;;;;6155123;23;20078;-88
2023/04/08 11:58:47;;;;;;;31.25;24.05;;;10.50;99.90;;;;;;6155542;23;20014;-88
2023/04/08 12:01:13;;;;;;;29.63;23.27;;;10.60;99.90;;;;;;6104735;23;20021;-88
2023/04/08 12:03:52;;;;;;;29.13;21.98;;;10.50;99.90;;;;;;6129542;23;20009;-88
2023/04/08 12:06:17;;;;;;;28.70;24.13;;;10.50;99.90;;;;;;6130125;23;20009;-88
2023/04/08 12:08:43;;;;;;;28.85;22.70;;;10.60;99.90;;;;;;6130412;23;20413;-86
2023/04/08 12:11:10;;;;;;;27.80;23.05;;;10.90;99.90;;;;;;6130626;23;20024;-86
2023/04/08 12:13:35;;;;;;;30.15;25.38;;;10.70;99.90;;;;;;6130778;23;20080;-89
2023/04/08 12:16:01;;;;;;;27.92;22.98;;;10.60;99.90;;;;;;6104639;23;20016;-88
2023/04/08 12:18:26;;;;;;;27.13;22.73;;;10.60;99.90;;;;;;6104155;23;20093;-88
2023/04/08 12:20:53;;;;;;;28.77;22.55;;;10.70;99.90;;;;;;6155326;23;20425;-89
2023/04/08 12:23:19;;;;;;;27.95;21.30;;;10.30;99.90;;;;;;6128135;23;20028;-88
2023/04/08 12:25:44;;;;;;;28.98;22.63;;;10.30;99.90;;;;;;6103680;23;20017;-87
2023/04/08 12:28:11;;;;;;;28.95;23.15;;;10.20;99.90;;;;;;6154636;23;20024;-88
2023/04/08 12:30:37;;;;;;;25.33;21.10;;;10.20;99.90;;;;;;6128498;23;20014;-87
2023/04/08 12:33:02;;;;;;;26.05;21.20;;;10.20;99.90;;;;;;6104064;23;20021;-88
2023/04/08 12:35:28;;;;;;;24.17;21.13;;;10.20;99.90;;;;;;6128477;23;20018;-88